createdAt,value
2018-04-28T00:01:13.129Z,99593.01
2018-04-28T00:03:40.564Z,99594.92
2018-04-28T00:06:10.058Z,99601.28
2018-04-28T00:08:39.413Z,99594.61
2018-04-28T00:11:06.925Z,99595.33
2018-04-28T00:13:34.397Z,99595.67
2018-04-28T00:16:02.752Z,99591.58
2018-04-28T00:18:30.216Z,99598.03
2018-04-28T00:21:02.691Z,99593.86
2018-04-28T00:23:30.140Z,99597.19
2018-04-28T00:25:58.505Z,99600.71
2018-04-28T00:28:48.457Z,99596.95
2018-04-28T00:31:24.532Z,99599.95
2018-04-28T00:33:54.516Z,99601.98
2018-04-28T00:39:17.644Z,99609.06
2018-04-28T00:41:45.092Z,99599.34
2018-04-28T00:44:13.446Z,99605.17
2018-04-28T00:46:49.542Z,99596.20
2018-04-28T00:49:27.217Z,99599.36
2018-04-28T00:51:56.324Z,99602.80
2018-04-28T00:54:26.323Z,99603.44
2018-04-28T00:57:05.614Z,99604.05
2018-04-28T00:59:35.895Z,99605.23
2018-04-28T01:02:03.403Z,99601.78
2018-04-28T01:04:36.779Z,99605.17
2018-04-28T01:07:04.248Z,99603.20
2018-04-28T01:09:31.729Z,99601.53
2018-04-28T01:11:59.183Z,99607.52
2018-04-28T01:14:43.443Z,99609.72
2018-04-28T01:17:13.412Z,99612.30
2018-04-28T01:19:43.291Z,99612.38
2018-04-28T01:22:10.793Z,99610.31
2018-04-28T01:24:43.090Z,99618.64
2018-04-28T01:30:20.893Z,99610.16
2018-04-28T01:36:02.267Z,99613.60
2018-04-28T01:38:47.335Z,99611.97
2018-04-28T01:41:36.842Z,99607.50
2018-04-28T01:44:09.904Z,99607.48
2018-04-28T01:46:38.695Z,99609.77
2018-04-28T01:49:09.526Z,99602.48
2018-04-28T01:51:37.856Z,99611.57
2018-04-28T01:57:15.788Z,99615.31
2018-04-28T01:59:44.874Z,99624.88
2018-04-28T02:02:12.315Z,99626.61
2018-04-28T02:04:55.605Z,99629.26
2018-04-28T02:07:23.096Z,99627.98
2018-04-28T02:09:52.469Z,99632.09
2018-04-28T02:12:21.902Z,99635.10
2018-04-28T02:14:53.760Z,99641.25
2018-04-28T02:17:21.628Z,99640.40
2018-04-28T02:19:57.637Z,99644.48
2018-04-28T02:22:32.804Z,99645.45
2018-04-28T02:25:07.038Z,99646.08
2018-04-28T02:30:25.226Z,99656.95
2018-04-28T02:32:58.218Z,99656.18
2018-04-28T02:35:27.270Z,99663.05
2018-04-28T02:38:14.430Z,99657.21
2018-04-28T02:40:58.758Z,99660.92
2018-04-28T02:43:29.756Z,99661.09
2018-04-28T02:46:08.814Z,99662.91
2018-04-28T02:48:53.683Z,99662.63
2018-04-28T02:51:26.951Z,99656.19
2018-04-28T02:53:55.232Z,99662.38
2018-04-28T02:56:35.133Z,99671.23
2018-04-28T02:59:16.516Z,99672.14
2018-04-28T03:01:51.668Z,99675.84
2018-04-28T03:04:23.715Z,99673.86
2018-04-28T03:06:51.189Z,99672.25
2018-04-28T03:09:22.110Z,99673.11
2018-04-28T03:11:52.426Z,99676.23
2018-04-28T03:14:19.894Z,99683.70
2018-04-28T03:17:00.872Z,99686.61
2018-04-28T03:19:31.855Z,99687.81
2018-04-28T03:22:00.297Z,99694.62
2018-04-28T03:24:47.268Z,99700.72
2018-04-28T03:27:19.260Z,99697.70
2018-04-28T03:29:55.326Z,99704.36
2018-04-28T03:32:36.436Z,99713.06
2018-04-28T03:35:12.492Z,99710.78
2018-04-28T03:37:42.796Z,99714.39
2018-04-28T03:40:13.928Z,99712.26
2018-04-28T03:42:51.315Z,99713.25
2018-04-28T03:45:21.025Z,99715.87
2018-04-28T03:48:03.386Z,99719.19
2018-04-28T03:50:32.395Z,99718.94
2018-04-28T03:55:56.963Z,99724.80
2018-04-28T03:58:36.219Z,99725.64
2018-04-28T04:01:15.477Z,99732.14
2018-04-28T04:03:56.690Z,99740.63
2018-04-28T04:06:33.899Z,99736.74
2018-04-28T04:09:07.808Z,99743.84
2018-04-28T04:11:42.680Z,99743.09
2018-04-28T04:17:25.601Z,99748.11
2018-04-28T04:20:08.932Z,99749.16
2018-04-28T04:22:52.203Z,99747.88
2018-04-28T04:28:14.075Z,99759.25
2018-04-28T04:30:59.963Z,99766.67
2018-04-28T04:33:32.210Z,99773.63
2018-04-28T04:36:12.334Z,99783.23
2018-04-28T04:38:42.360Z,99781.86
2018-04-28T04:41:36.629Z,99782.26
2018-04-28T04:44:27.690Z,99780.33
2018-04-28T04:47:01.637Z,99788.55
2018-04-28T04:49:29.913Z,99789.98
2018-04-28T04:52:03.310Z,99791.02
2018-04-28T04:57:58.219Z,99790.92
2018-04-28T05:00:52.480Z,99798.64
2018-04-28T05:06:22.204Z,99804.17
2018-04-28T05:11:56.756Z,99814.05
2018-04-28T05:14:28.201Z,99822.34
2018-04-28T05:17:02.640Z,99821.62
2018-04-28T05:19:33.572Z,99824.53
2018-04-28T05:22:09.514Z,99835.42
2018-04-28T05:27:49.370Z,99838.90
2018-04-28T05:30:42.500Z,99848.05
2018-04-28T05:33:15.693Z,99850.50
2018-04-28T05:35:49.793Z,99855.76
2018-04-28T05:41:27.850Z,99869.72
2018-04-28T05:46:58.618Z,99871.73
2018-04-28T05:49:37.950Z,99873.72
2018-04-28T05:52:16.077Z,99878.97
2018-04-28T05:54:55.757Z,99883.84
2018-04-28T06:00:32.685Z,99890.83
2018-04-28T06:03:12.011Z,99885.39
2018-04-28T06:05:45.533Z,99898.55
2018-04-28T06:11:34.274Z,99911.83
2018-04-28T06:14:08.438Z,99907.66
2018-04-28T06:16:58.605Z,99905.97
2018-04-28T06:25:31.847Z,99913.80
2018-04-28T06:28:01.009Z,99910.23
2018-04-28T06:30:29.229Z,99918.83
2018-04-28T06:32:56.870Z,99920.89
2018-04-28T06:35:24.339Z,99914.52
2018-04-28T06:37:52.041Z,99917.20
2018-04-28T06:40:19.599Z,99918.78
2018-04-28T06:42:47.130Z,99927.67
2018-04-28T06:45:14.615Z,99918.66
2018-04-28T06:47:42.874Z,99921.78
2018-04-28T06:50:15.129Z,99925.16
2018-04-28T06:55:40.689Z,99928.73
2018-04-28T06:58:08.251Z,99930.27
2018-04-28T07:00:36.048Z,99937.04
2018-04-28T07:03:03.520Z,99933.50
2018-04-28T07:05:31.982Z,99938.20
2018-04-28T07:08:02.039Z,99940.23
2018-04-28T07:10:29.542Z,99940.47
2018-04-28T07:12:56.998Z,99945.88
2018-04-28T07:15:24.475Z,99945.47
2018-04-28T07:17:51.977Z,99951.73
2018-04-28T07:20:19.409Z,99951.06
2018-04-28T07:22:46.960Z,99960.10
2018-04-28T07:25:14.400Z,99961.28
2018-04-28T07:27:41.948Z,99953.92
2018-04-28T07:30:09.466Z,99958.09
2018-04-28T07:32:37.211Z,99961.37
2018-04-28T07:35:04.641Z,99958.67
2018-04-28T07:37:32.103Z,99960.12
2018-04-28T07:39:59.670Z,99955.73
2018-04-28T07:42:27.163Z,99957.66
2018-04-28T07:44:54.637Z,99961.06
2018-04-28T07:47:22.095Z,99960.66
2018-04-28T07:49:49.568Z,99959.90
2018-04-28T07:52:17.069Z,99960.49
2018-04-28T07:54:44.545Z,99959.30
2018-04-28T07:57:12.075Z,99952.16
2018-04-28T07:59:39.563Z,99955.53
2018-04-28T08:02:07.031Z,99947.21
2018-04-28T08:04:34.469Z,99954.42
2018-04-28T08:07:01.918Z,99957.68
2018-04-28T08:09:29.399Z,99956.17
2018-04-28T08:11:56.942Z,99948.52
2018-04-28T08:14:26.351Z,99951.12
2018-04-28T08:16:53.943Z,99953.20
2018-04-28T08:19:21.409Z,99959.64
2018-04-28T08:21:48.882Z,99964.48
2018-04-28T08:24:16.324Z,99963.91
2018-04-28T08:26:43.819Z,99965.61
2018-04-28T08:29:11.289Z,99971.20
2018-04-28T08:31:38.724Z,99962.50
2018-04-28T08:34:06.175Z,99960.08
2018-04-28T08:36:33.621Z,99967.24
2018-04-28T08:39:01.103Z,99970.13
2018-04-28T08:41:28.550Z,99965.98
2018-04-28T08:43:56.009Z,99964.55
2018-04-28T08:46:23.447Z,99964.72
2018-04-28T08:48:50.948Z,99963.05
2018-04-28T08:51:18.383Z,99963.27
2018-04-28T08:53:45.820Z,99970.60
2018-04-28T08:56:13.650Z,99967.75
2018-04-28T08:58:41.103Z,99970.62
2018-04-28T09:01:08.655Z,99969.45
2018-04-28T09:03:36.139Z,99956.77
2018-04-28T09:06:03.632Z,99962.64
2018-04-28T09:08:31.095Z,99963.70
2018-04-28T09:10:58.546Z,99955.81
2018-04-28T09:13:26.021Z,99955.27
2018-04-28T09:15:53.540Z,99952.28
2018-04-28T09:18:21.033Z,99946.52
2018-04-28T09:20:49.340Z,99946.89
2018-04-28T09:23:18.109Z,99948.22
2018-04-28T09:25:46.548Z,99952.29
2018-04-28T09:28:14.050Z,99957.52
2018-04-28T09:30:48.271Z,99956.75
2018-04-28T09:33:15.805Z,99954.73
2018-04-28T09:35:43.361Z,99950.98
2018-04-28T09:38:15.390Z,99946.73
2018-04-28T09:40:43.101Z,99949.36
2018-04-28T09:43:10.661Z,99944.70
2018-04-28T09:45:38.327Z,99951.12
2018-04-28T09:48:06.739Z,99950.33
2018-04-28T09:50:34.630Z,99948.28
2018-04-28T09:53:02.049Z,99951.12
2018-04-28T09:55:29.814Z,99946.13
2018-04-28T09:58:06.175Z,99954.05
2018-04-28T10:00:35.727Z,99954.85
2018-04-28T10:03:06.738Z,99961.33
2018-04-28T10:05:36.788Z,99965.56
2018-04-28T10:08:04.258Z,99958.16
2018-04-28T10:10:34.002Z,99951.44
2018-04-28T10:13:02.374Z,99962.50
2018-04-28T10:15:30.319Z,99941.13
2018-04-28T10:18:05.062Z,99935.06
2018-04-28T10:23:35.290Z,99938.64
2018-04-28T10:26:02.799Z,99934.19
2018-04-28T10:28:33.722Z,99936.00
2018-04-28T10:31:06.754Z,99926.38
2018-04-28T10:33:35.830Z,99931.98
2018-04-28T10:36:05.047Z,99928.55
2018-04-28T10:38:36.358Z,99927.41
2018-04-28T10:41:03.849Z,99935.24
2018-04-28T10:43:31.421Z,99924.37
2018-04-28T10:45:58.916Z,99922.42
2018-04-28T10:48:26.627Z,99937.57
2018-04-28T10:50:54.271Z,99923.53
2018-04-28T10:53:23.968Z,99920.98
2018-04-28T10:55:51.430Z,99921.52
2018-04-28T10:58:18.980Z,99921.84
2018-04-28T11:00:46.552Z,99924.17
2018-04-28T11:03:14.178Z,99929.73
2018-04-28T11:05:44.111Z,99913.94
2018-04-28T11:08:15.158Z,99913.34
2018-04-28T11:10:46.901Z,99912.27
2018-04-28T11:15:49.209Z,99908.42
2018-04-28T11:18:17.624Z,99906.24
2018-04-28T11:20:47.232Z,99902.47
2018-04-28T11:23:18.091Z,99894.72
2018-04-28T11:25:45.783Z,99894.37
2018-04-28T11:28:13.332Z,99890.53
2018-04-28T11:30:42.834Z,99891.55
2018-04-28T11:33:10.574Z,99889.80
2018-04-28T11:35:38.578Z,99891.63
2018-04-28T11:38:07.415Z,99881.13
2018-04-28T11:40:34.947Z,99894.34
2018-04-28T11:43:02.701Z,99891.88
2018-04-28T11:45:30.247Z,99880.83
2018-04-28T11:47:58.597Z,99875.61
2018-04-28T11:50:28.513Z,99882.28
2018-04-28T11:52:57.710Z,99879.97
2018-04-28T11:55:26.951Z,99867.91
2018-04-28T11:57:56.177Z,99872.00
2018-04-28T12:00:25.616Z,99865.16
2018-04-28T12:02:54.385Z,99863.36
2018-04-28T12:05:21.956Z,99860.23
2018-04-28T12:07:51.628Z,99858.73
2018-04-28T12:10:19.982Z,99853.33
2018-04-28T12:12:47.798Z,99854.86
2018-04-28T12:15:18.438Z,99849.24
2018-04-28T12:17:46.014Z,99842.41
2018-04-28T12:20:13.552Z,99841.21
2018-04-28T12:22:41.153Z,99841.97
2018-04-28T12:25:08.612Z,99841.52
2018-04-28T12:27:36.117Z,99830.34
2018-04-28T12:30:03.704Z,99836.46
2018-04-28T12:32:31.222Z,99834.80
2018-04-28T12:34:58.819Z,99836.60
2018-04-28T12:37:26.417Z,99836.80
2018-04-28T12:39:53.897Z,99829.02
2018-04-28T12:42:21.400Z,99833.67
2018-04-28T12:44:48.955Z,99834.45
2018-04-28T12:47:16.643Z,99837.72
2018-04-28T12:49:44.109Z,99836.36
2018-04-28T12:52:11.819Z,99835.36
2018-04-28T12:54:39.961Z,99833.41
2018-04-28T12:57:08.368Z,99831.09
2018-04-28T12:59:36.831Z,99827.77
2018-04-28T13:02:09.372Z,99826.17
2018-04-28T13:04:37.140Z,99827.78
2018-04-28T13:07:04.729Z,99838.27
2018-04-28T13:09:32.414Z,99828.58
2018-04-28T13:11:59.987Z,99824.66
2018-04-28T13:14:27.558Z,99827.56
2018-04-28T13:16:55.147Z,99821.75
2018-04-28T13:19:23.024Z,99816.54
2018-04-28T13:21:50.504Z,99817.33
2018-04-28T13:24:18.964Z,99815.98
2018-04-28T13:26:47.699Z,99814.23
2018-04-28T13:29:15.407Z,99809.17
2018-04-28T13:31:42.975Z,99802.02
2018-04-28T13:34:11.147Z,99800.23
2018-04-28T13:36:38.866Z,99805.10
2018-04-28T13:39:07.083Z,99798.69
2018-04-28T13:41:35.313Z,99794.77
2018-04-28T13:44:03.130Z,99799.81
2018-04-28T13:46:30.657Z,99793.95
2018-04-28T13:48:59.143Z,99788.50
2018-04-28T13:51:26.765Z,99791.22
2018-04-28T13:53:54.401Z,99795.69
2018-04-28T13:56:22.308Z,99786.59
2018-04-28T13:58:49.827Z,99783.88
2018-04-28T14:01:17.667Z,99792.63
2018-04-28T14:03:45.345Z,99790.67
2018-04-28T14:06:12.957Z,99793.34
2018-04-28T14:08:40.621Z,99791.30
2018-04-28T14:11:08.349Z,99787.59
2018-04-28T14:13:35.868Z,99789.91
2018-04-28T14:16:16.903Z,99789.12
2018-04-28T14:21:18.898Z,99784.38
2018-04-28T14:23:46.427Z,99787.05
2018-04-28T14:26:13.935Z,99791.08
2018-04-28T14:28:41.443Z,99785.36
2018-04-28T14:31:10.121Z,99789.41
2018-04-28T14:33:37.684Z,99791.41
2018-04-28T14:36:05.127Z,99791.14
2018-04-28T14:38:32.595Z,99790.27
2018-04-28T14:41:00.066Z,99795.05
2018-04-28T14:43:27.522Z,99796.03
2018-04-28T14:45:54.971Z,99796.36
2018-04-28T14:48:22.413Z,99798.81
2018-04-28T14:50:49.887Z,99790.63
2018-04-28T14:53:17.359Z,99797.14
2018-04-28T14:55:44.877Z,99796.19
2018-04-28T14:58:12.319Z,99793.04
2018-04-28T15:00:39.777Z,99803.63
2018-04-28T15:03:07.215Z,99805.13
2018-04-28T15:05:34.713Z,99806.80
2018-04-28T15:08:02.151Z,99812.52
2018-04-28T15:10:29.841Z,99810.89
2018-04-28T15:12:57.403Z,99815.41
2018-04-28T15:15:24.826Z,99814.14
2018-04-28T15:17:52.271Z,99813.30
2018-04-28T15:20:19.863Z,99823.69
2018-04-28T15:22:47.373Z,99826.74
2018-04-28T15:25:14.838Z,99827.65
2018-04-28T15:27:42.319Z,99826.98
2018-04-28T15:30:09.787Z,99823.91
2018-04-28T15:32:37.289Z,99820.75
2018-04-28T15:35:04.743Z,99813.93
2018-04-28T15:37:32.256Z,99806.00
2018-04-28T15:40:00.020Z,99808.87
2018-04-28T15:42:27.507Z,99818.08
2018-04-28T15:44:55.117Z,99812.61
2018-04-28T15:47:22.596Z,99811.36
2018-04-28T15:49:50.124Z,99812.00
2018-04-28T15:52:17.594Z,99823.28
2018-04-28T15:54:45.221Z,99825.87
2018-04-28T15:57:13.464Z,99819.88
2018-04-28T15:59:40.947Z,99822.59
2018-04-28T16:02:18.005Z,99817.30
2018-04-28T16:04:45.709Z,99822.62
2018-04-28T16:07:13.219Z,99807.95
2018-04-28T16:09:40.695Z,99797.17
2018-04-28T16:12:08.193Z,99793.42
2018-04-28T16:14:35.783Z,99787.06
2018-04-28T16:17:05.095Z,99773.60
2018-04-28T16:19:32.711Z,99783.56
2018-04-28T16:22:00.251Z,99790.45
2018-04-28T16:24:27.866Z,99797.52
2018-04-28T16:26:55.358Z,99799.02
2018-04-28T16:29:22.798Z,99802.89
2018-04-28T16:31:50.231Z,99814.84
2018-04-28T16:34:17.812Z,99812.72
2018-04-28T16:36:45.287Z,99813.58
2018-04-28T16:39:12.953Z,99816.25
2018-04-28T16:41:40.557Z,99816.70
2018-04-28T16:44:08.149Z,99813.94
2018-04-28T16:46:35.603Z,99810.80
2018-04-28T16:49:03.089Z,99817.77
2018-04-28T16:51:30.714Z,99811.84
2018-04-28T16:53:58.419Z,99809.39
2018-04-28T16:56:25.908Z,99813.66
2018-04-28T16:58:53.440Z,99816.03
2018-04-28T17:01:21.093Z,99817.02
2018-04-28T17:03:49.725Z,99817.82
2018-04-28T17:06:17.549Z,99815.55
2018-04-28T17:08:45.175Z,99812.81
2018-04-28T17:11:12.752Z,99812.41
2018-04-28T17:13:40.415Z,99819.97
2018-04-28T17:16:08.051Z,99820.58
2018-04-28T17:18:35.720Z,99816.27
2018-04-28T17:21:03.262Z,99818.25
2018-04-28T17:23:30.875Z,99822.78
2018-04-28T17:25:58.611Z,99825.28
2018-04-28T17:28:26.338Z,99829.88
2018-04-28T17:30:54.166Z,99843.25
2018-04-28T17:33:21.847Z,99850.38
2018-04-28T17:35:50.074Z,99845.11
2018-04-28T17:38:17.633Z,99844.89
2018-04-28T17:40:45.260Z,99848.28
2018-04-28T17:43:13.567Z,99845.69
2018-04-28T17:45:42.031Z,99844.34
2018-04-28T17:48:09.544Z,99854.63
2018-04-28T17:50:37.038Z,99856.70
2018-04-28T17:53:04.494Z,99852.39
2018-04-28T17:55:32.023Z,99850.30
2018-04-28T17:57:59.598Z,99846.08
2018-04-28T18:00:27.072Z,99848.48
2018-04-28T18:02:54.712Z,99851.11
2018-04-28T18:05:22.087Z,99848.78
2018-04-28T18:07:49.574Z,99854.12
2018-04-28T18:10:17.142Z,99856.89
2018-04-28T18:12:49.830Z,99859.34
2018-04-28T18:15:17.370Z,99858.84
2018-04-28T18:17:44.983Z,99863.84
2018-04-28T18:20:12.519Z,99859.20
2018-04-28T18:22:40.097Z,99861.36
2018-04-28T18:25:07.656Z,99864.33
2018-04-28T18:27:35.168Z,99861.55
2018-04-28T18:30:02.629Z,99862.22
2018-04-28T18:32:32.237Z,99858.89
2018-04-28T18:34:59.844Z,99866.09
2018-04-28T18:37:27.411Z,99865.27
2018-04-28T18:39:54.871Z,99871.25
2018-04-28T18:42:22.956Z,99877.77
2018-04-28T18:44:50.423Z,99878.94
2018-04-28T18:47:17.959Z,99876.19
2018-04-28T18:49:45.423Z,99882.52
2018-04-28T18:52:12.926Z,99878.89
2018-04-28T18:54:40.401Z,99885.77
2018-04-28T18:57:07.908Z,99886.83
2018-04-28T18:59:35.420Z,99888.70
2018-04-28T19:02:03.056Z,99892.39
2018-04-28T19:04:31.264Z,99893.30
2018-04-28T19:06:58.697Z,99890.10
2018-04-28T19:09:26.246Z,99892.94
2018-04-28T19:11:54.525Z,99892.66
2018-04-28T19:14:23.467Z,99898.41
2018-04-28T19:16:51.029Z,99894.68
2018-04-28T19:19:18.508Z,99898.31
2018-04-28T19:21:46.168Z,99895.92
2018-04-28T19:24:13.678Z,99893.00
2018-04-28T19:26:41.276Z,99901.22
2018-04-28T19:29:08.788Z,99899.73
2018-04-28T19:31:36.244Z,99907.23
2018-04-28T19:34:03.720Z,99907.13
2018-04-28T19:36:31.267Z,99910.13
2018-04-28T19:38:59.112Z,99914.84
2018-04-28T19:41:26.770Z,99909.56
2018-04-28T19:43:54.250Z,99908.00
2018-04-28T19:46:21.745Z,99899.22
2018-04-28T19:48:49.314Z,99907.25
2018-04-28T19:51:21.998Z,99899.89
2018-04-28T19:53:49.583Z,99903.88
2018-04-28T19:56:17.092Z,99903.41
2018-04-28T19:58:44.606Z,99899.14
2018-04-28T20:01:12.090Z,99908.00
2018-04-28T20:03:39.572Z,99896.50
2018-04-28T20:06:07.132Z,99905.38
2018-04-28T20:08:34.712Z,99903.75
2018-04-28T20:11:02.200Z,99902.13
2018-04-28T20:13:29.672Z,99896.72
2018-04-28T20:15:57.117Z,99895.75
2018-04-28T20:18:24.818Z,99892.41
2018-04-28T20:20:52.302Z,99899.56
2018-04-28T20:23:31.611Z,99895.59
2018-04-28T20:25:59.158Z,99901.11
2018-04-28T20:28:26.602Z,99901.75
2018-04-28T20:30:54.222Z,99901.70
2018-04-28T20:33:21.729Z,99902.64
2018-04-28T20:35:49.229Z,99899.88
2018-04-28T20:38:16.700Z,99902.29
2018-04-28T20:40:44.199Z,99904.50
2018-04-28T20:43:11.670Z,99904.14
2018-04-28T20:45:39.123Z,99914.05
2018-04-28T20:48:06.612Z,99912.67
2018-04-28T20:50:34.085Z,99915.31
2018-04-28T20:53:01.562Z,99916.55
2018-04-28T20:55:29.098Z,99909.77
2018-04-28T20:57:56.762Z,99910.64
2018-04-28T21:00:24.214Z,99910.69
2018-04-28T21:02:51.751Z,99906.41
2018-04-28T21:05:19.192Z,99911.61
2018-04-28T21:07:47.256Z,99907.80
2018-04-28T21:10:14.722Z,99907.20
2018-04-28T21:12:42.196Z,99899.95
2018-04-28T21:15:09.674Z,99898.01
2018-04-28T21:17:37.333Z,99897.67
2018-04-28T21:20:04.812Z,99892.23
2018-04-28T21:22:51.511Z,99892.69
2018-04-28T21:25:19.095Z,99890.62
2018-04-28T21:27:46.607Z,99892.63
2018-04-28T21:30:14.129Z,99891.22
2018-04-28T21:32:46.413Z,99897.80
2018-04-28T21:35:13.989Z,99905.69
2018-04-28T21:37:41.592Z,99899.39
2018-04-28T21:40:10.064Z,99896.87
2018-04-28T21:42:38.486Z,99897.73
2018-04-28T21:45:06.775Z,99894.33
2018-04-28T21:47:34.235Z,99887.09
2018-04-28T21:50:05.711Z,99893.31
2018-04-28T21:52:33.251Z,99893.77
2018-04-28T21:55:00.800Z,99891.66
2018-04-28T21:57:28.245Z,99891.63
2018-04-28T21:59:55.783Z,99882.81
2018-04-28T22:02:23.257Z,99884.49
2018-04-28T22:04:50.755Z,99882.55
2018-04-28T22:07:19.497Z,99889.08
2018-04-28T22:09:46.981Z,99882.17
2018-04-28T22:12:14.457Z,99888.63
2018-04-28T22:14:42.207Z,99891.22
2018-04-28T22:17:09.725Z,99898.09
2018-04-28T22:19:37.519Z,99893.44
2018-04-28T22:22:04.971Z,99884.82
2018-04-28T22:24:32.447Z,99874.73
2018-04-28T22:26:59.971Z,99864.80
2018-04-28T22:29:27.453Z,99853.97
2018-04-28T22:34:48.276Z,99841.21
2018-04-28T22:37:15.719Z,99846.08
2018-04-28T22:39:43.427Z,99858.01
2018-04-28T22:42:10.983Z,99857.61
2018-04-28T22:44:38.489Z,99858.64
2018-04-28T22:47:05.979Z,99853.60
2018-04-28T22:49:33.452Z,99855.22
2018-04-28T22:52:00.915Z,99862.38
2018-04-28T22:54:28.451Z,99862.38
2018-04-28T22:56:55.949Z,99868.55
2018-04-28T22:59:23.573Z,99871.75
2018-04-28T23:01:51.277Z,99873.77
2018-04-28T23:04:19.046Z,99870.95
2018-04-28T23:06:46.557Z,99874.34
2018-04-28T23:09:14.077Z,99865.05
2018-04-28T23:11:41.575Z,99869.70
2018-04-28T23:14:09.039Z,99865.89
2018-04-28T23:16:36.487Z,99868.27
2018-04-28T23:19:03.990Z,99871.92
2018-04-28T23:21:31.567Z,99878.06
2018-04-28T23:23:59.070Z,99875.58
2018-04-28T23:26:26.591Z,99874.98
2018-04-28T23:28:54.229Z,99875.95
2018-04-28T23:31:22.019Z,99874.78
2018-04-28T23:33:49.509Z,99872.13
2018-04-28T23:36:16.963Z,99863.70
2018-04-28T23:38:44.432Z,99863.00
2018-04-28T23:41:11.874Z,99859.71
2018-04-28T23:43:39.816Z,99854.41
2018-04-28T23:46:07.481Z,99858.83
2018-04-28T23:48:36.369Z,99858.41
2018-04-28T23:51:03.851Z,99854.44
2018-04-28T23:53:31.363Z,99847.48
2018-04-28T23:55:58.943Z,99852.67
2018-04-28T23:58:26.460Z,99850.89
